Time;durP1;ratioP1;P1;durP2;ratioP2;P2;SDS_P1;SDS_P2;PMS_P1;PMS_P2;Temp;Humidity;BMP_temperature;BMP_pressure;BME280_temperature;BME280_humidity;BME280_pressure;Samples;Min_cycle;Max_cycle;Signal;HPM_P1;HPM_P2
2022/03/05 12:06:14;;;;;;;410.52;151.35;;;;;;;;;;5092025;27;20559;-68
2022/03/05 12:08:59;;;;;;;417.55;106.22;;;;;;;;;;5087981;28;20208;-68
2022/03/05 12:11:26;;;;;;;422.80;105.65;;;;;;;;;;5088198;28;20226;-69
2022/03/05 12:13:55;;;;;;;416.73;112.50;;;;;;;;;;5087759;28;20626;-70
2022/03/05 12:16:24;;;;;;;418.52;96.65;;;;;;;;;;5087920;28;20216;-70
2022/03/05 12:18:52;;;;;;;373.15;78.57;;;;;;;;;;5087909;28;20212;-71
2022/03/05 12:21:25;;;;;;;399.90;90.85;;;;;;;;;;5087571;28;20955;-69
2022/03/05 12:23:58;;;;;;;396.05;89.45;;;;;;;;;;5087851;28;20547;-71
2022/03/05 12:26:31;;;;;;;397.58;86.45;;;;;;;;;;5087804;28;20708;-70
2022/03/05 12:28:59;;;;;;;394.88;92.35;;;;;;;;;;5087070;28;20208;-69
2022/03/05 12:31:26;;;;;;;396.45;87.90;;;;;;;;;;5087527;28;20199;-71
2022/03/05 12:33:53;;;;;;;397.80;88.18;;;;;;;;;;5087461;28;20683;-70
2022/03/05 12:36:24;;;;;;;396.70;87.45;;;;;;;;;;5087852;28;20249;-71
2022/03/05 12:38:58;;;;;;;414.90;90.47;;;;;;;;;;5080685;28;20216;-69
2022/03/05 12:41:26;;;;;;;390.73;81.07;;;;;;;;;;5080956;28;20286;-69
2022/03/05 12:43:54;;;;;;;399.48;85.03;;;;;;;;;;5087219;28;20215;-70
2022/03/05 12:46:21;;;;;;;404.40;89.55;;;;;;;;;;5086807;28;20212;-70
2022/03/05 12:48:49;;;;;;;402.50;87.00;;;;;;;;;;5086906;28;20635;-70
2022/03/05 12:51:16;;;;;;;416.95;99.32;;;;;;;;;;5086643;28;20211;-70
2022/03/05 12:53:46;;;;;;;400.58;89.07;;;;;;;;;;5086827;28;20205;-70
2022/03/05 12:56:16;;;;;;;412.08;93.50;;;;;;;;;;5085897;28;20223;-70
2022/03/05 12:58:43;;;;;;;414.95;97.93;;;;;;;;;;5084277;28;20216;-70
2022/03/05 13:01:13;;;;;;;408.58;99.97;;;;;;;;;;5083248;28;20216;-70
2022/03/05 13:03:41;;;;;;;412.40;96.32;;;;;;;;;;5083854;28;20207;-70
2022/03/05 13:06:08;;;;;;;393.52;90.28;;;;;;;;;;5084241;28;20232;-70
2022/03/05 13:08:36;;;;;;;408.73;92.47;;;;;;;;;;5085266;28;20208;-70
2022/03/05 13:11:07;;;;;;;401.05;89.63;;;;;;;;;;5085660;28;20211;-70
2022/03/05 13:13:36;;;;;;;403.58;90.28;;;;;;;;;;5086939;28;20236;-70
2022/03/05 13:16:04;;;;;;;414.80;93.85;;;;;;;;;;5081419;28;20585;-70
2022/03/05 13:18:31;;;;;;;400.77;87.53;;;;;;;;;;5073375;28;20215;-70
2022/03/05 13:21:01;;;;;;;390.48;84.68;;;;;;;;;;5072872;28;20204;-71
2022/03/05 13:23:28;;;;;;;410.45;92.25;;;;;;;;;;5073474;28;20205;-70
2022/03/05 13:25:56;;;;;;;408.15;88.22;;;;;;;;;;5073193;28;20233;-70
2022/03/05 13:28:26;;;;;;;409.52;91.50;;;;;;;;;;5073128;28;20208;-69
2022/03/05 13:30:55;;;;;;;400.95;90.25;;;;;;;;;;5073206;28;20211;-70
2022/03/05 13:33:38;;;;;;;406.75;91.70;;;;;;;;;;5072659;28;20212;-70
2022/03/05 13:36:16;;;;;;;401.73;85.55;;;;;;;;;;5073196;28;20204;-70
2022/03/05 13:38:44;;;;;;;413.90;92.38;;;;;;;;;;5072914;28;20691;-70
2022/03/05 13:41:13;;;;;;;413.27;99.05;;;;;;;;;;5072712;28;20204;-70
2022/03/05 13:43:42;;;;;;;395.90;86.28;;;;;;;;;;5072728;28;20693;-69
2022/03/05 13:46:10;;;;;;;403.33;86.40;;;;;;;;;;5072940;28;20228;-70
2022/03/05 13:48:47;;;;;;;390.08;80.97;;;;;;;;;;5073065;28;20295;-70
2022/03/05 13:51:16;;;;;;;398.17;94.82;;;;;;;;;;5072590;28;20570;-69
2022/03/05 13:53:47;;;;;;;382.63;81.63;;;;;;;;;;5072572;28;20204;-69
2022/03/05 13:56:15;;;;;;;383.27;80.32;;;;;;;;;;5072385;28;20219;-70
2022/03/05 13:58:45;;;;;;;390.48;79.18;;;;;;;;;;5072534;28;20595;-70
2022/03/05 14:01:18;;;;;;;389.40;87.15;;;;;;;;;;5065325;28;20243;-69
2022/03/05 14:04:04;;;;;;;394.55;88.15;;;;;;;;;;5072358;28;20205;-70
2022/03/05 14:06:31;;;;;;;398.65;84.70;;;;;;;;;;5072415;28;20673;-70
2022/03/05 14:09:00;;;;;;;372.13;76.35;;;;;;;;;;5072236;28;20662;-70
2022/03/05 14:11:31;;;;;;;380.75;81.20;;;;;;;;;;5072466;28;20204;-69
2022/03/05 14:14:00;;;;;;;388.90;83.70;;;;;;;;;;5072451;28;20213;-70
2022/03/05 14:16:38;;;;;;;383.65;81.60;;;;;;;;;;5072364;28;20613;-70
2022/03/05 14:19:06;;;;;;;409.80;96.60;;;;;;;;;;5065897;28;20208;-70
2022/03/05 14:21:33;;;;;;;391.70;80.70;;;;;;;;;;5065604;28;20215;-70
2022/03/05 14:24:03;;;;;;;384.38;81.45;;;;;;;;;;5072267;28;20212;-70
2022/03/05 14:26:34;;;;;;;382.10;78.57;;;;;;;;;;5072095;28;20224;-69
2022/03/05 14:29:05;;;;;;;390.23;87.35;;;;;;;;;;5070697;28;20207;-70
2022/03/05 14:31:32;;;;;;;396.25;82.72;;;;;;;;;;5071805;28;20241;-69
2022/03/05 14:34:01;;;;;;;392.83;86.60;;;;;;;;;;5071679;28;20216;-70
2022/03/05 14:36:28;;;;;;;392.58;82.05;;;;;;;;;;5071982;28;20282;-69
2022/03/05 14:38:56;;;;;;;391.85;83.20;;;;;;;;;;5071697;28;20212;-70
2022/03/05 14:41:23;;;;;;;382.73;81.55;;;;;;;;;;5071445;28;20213;-70
2022/03/05 14:43:51;;;;;;;384.83;80.47;;;;;;;;;;5071679;28;20595;-69
2022/03/05 14:46:20;;;;;;;383.83;79.32;;;;;;;;;;5071417;28;20227;-70
2022/03/05 14:48:47;;;;;;;384.05;80.85;;;;;;;;;;5072028;28;20214;-69
2022/03/05 14:51:15;;;;;;;384.42;86.50;;;;;;;;;;5071571;28;20233;-69
2022/03/05 14:53:49;;;;;;;375.58;73.07;;;;;;;;;;5071363;28;20212;-69
2022/03/05 14:56:16;;;;;;;386.30;80.22;;;;;;;;;;5071461;28;20218;-70
2022/03/05 14:58:43;;;;;;;381.92;84.00;;;;;;;;;;5071244;28;20220;-70
2022/03/05 15:01:11;;;;;;;385.73;83.15;;;;;;;;;;5071007;28;20227;-70
2022/03/05 15:03:41;;;;;;;375.10;75.90;;;;;;;;;;5071443;28;20650;-69
2022/03/05 15:06:08;;;;;;;367.75;74.38;;;;;;;;;;5071124;28;20234;-69
2022/03/05 15:08:36;;;;;;;367.20;75.07;;;;;;;;;;5071107;28;20218;-70
2022/03/05 15:11:03;;;;;;;381.50;83.20;;;;;;;;;;5070886;28;20224;-70
2022/03/05 15:13:31;;;;;;;376.77;81.72;;;;;;;;;;5071050;28;20214;-70
2022/03/05 15:15:58;;;;;;;373.38;79.43;;;;;;;;;;5071310;28;20218;-69
2022/03/05 15:18:26;;;;;;;376.40;81.60;;;;;;;;;;5064204;28;20211;-69
2022/03/05 15:20:55;;;;;;;377.38;80.03;;;;;;;;;;5071355;28;20262;-69
2022/03/05 15:23:22;;;;;;;367.17;75.32;;;;;;;;;;5070702;28;20261;-69
2022/03/05 15:25:50;;;;;;;376.23;78.60;;;;;;;;;;5070644;28;20237;-69
2022/03/05 15:28:17;;;;;;;380.00;76.85;;;;;;;;;;5071264;28;20203;-69
2022/03/05 15:30:45;;;;;;;368.15;76.45;;;;;;;;;;5070837;28;20220;-69
2022/03/05 15:33:12;;;;;;;389.50;86.53;;;;;;;;;;5070673;28;20217;-70
2022/03/05 15:35:39;;;;;;;377.30;77.28;;;;;;;;;;5070861;28;20214;-69
2022/03/05 15:38:09;;;;;;;373.85;74.18;;;;;;;;;;5070856;28;20206;-70
2022/03/05 15:40:36;;;;;;;383.58;76.63;;;;;;;;;;5070472;28;20213;-70
2022/03/05 15:43:04;;;;;;;373.83;79.97;;;;;;;;;;5070534;28;20214;-69
2022/03/05 15:45:31;;;;;;;367.17;77.03;;;;;;;;;;5070749;28;20230;-69
2022/03/05 15:47:59;;;;;;;376.23;79.43;;;;;;;;;;5070675;28;20214;-70
2022/03/05 15:50:27;;;;;;;364.23;73.97;;;;;;;;;;5070665;28;20209;-69
2022/03/05 15:52:54;;;;;;;381.25;80.43;;;;;;;;;;5070461;28;20267;-69
2022/03/05 15:55:23;;;;;;;378.15;76.32;;;;;;;;;;5070564;28;20214;-69
2022/03/05 15:57:52;;;;;;;382.85;79.85;;;;;;;;;;5070656;28;20212;-69
2022/03/05 16:00:20;;;;;;;354.13;71.03;;;;;;;;;;5070409;28;20295;-68
2022/03/05 16:02:48;;;;;;;367.60;77.35;;;;;;;;;;5070521;28;20723;-69
2022/03/05 16:05:15;;;;;;;383.95;83.20;;;;;;;;;;5070166;28;20233;-70
2022/03/05 16:07:43;;;;;;;349.00;69.80;;;;;;;;;;5070394;28;20211;-69
2022/03/05 16:10:10;;;;;;;365.63;73.00;;;;;;;;;;5070737;28;20215;-69
2022/03/05 16:12:40;;;;;;;359.52;71.18;;;;;;;;;;5070637;28;20257;-69
2022/03/05 16:15:09;;;;;;;368.40;81.80;;;;;;;;;;5070234;28;20200;-69
2022/03/05 16:17:37;;;;;;;373.55;79.25;;;;;;;;;;5070333;28;20214;-69
2022/03/05 16:20:05;;;;;;;368.60;77.80;;;;;;;;;;5070277;28;20288;-69
2022/03/05 16:22:32;;;;;;;358.55;72.97;;;;;;;;;;5070220;28;20572;-69
2022/03/05 16:25:00;;;;;;;392.60;77.35;;;;;;;;;;5070090;28;20215;-69
2022/03/05 16:27:27;;;;;;;361.25;75.70;;;;;;;;;;5070079;28;20243;-69
2022/03/05 16:29:56;;;;;;;363.02;74.90;;;;;;;;;;5070254;28;20587;-69
2022/03/05 16:32:24;;;;;;;358.33;73.25;;;;;;;;;;5070197;28;20219;-69
2022/03/05 16:34:51;;;;;;;347.90;71.45;;;;;;;;;;5070541;28;20719;-69
2022/03/05 16:37:19;;;;;;;349.20;70.53;;;;;;;;;;5069966;28;20208;-69
2022/03/05 16:39:47;;;;;;;341.33;67.95;;;;;;;;;;5070105;28;20205;-69
2022/03/05 16:42:14;;;;;;;349.58;72.65;;;;;;;;;;5070246;28;20204;-70
2022/03/05 16:44:42;;;;;;;371.52;80.75;;;;;;;;;;5070136;28;20209;-69
2022/03/05 16:47:12;;;;;;;368.40;85.07;;;;;;;;;;5069704;28;20232;-69
2022/03/05 16:49:40;;;;;;;372.73;81.63;;;;;;;;;;5070489;28;20270;-69
2022/03/05 16:52:07;;;;;;;358.92;76.72;;;;;;;;;;5072552;28;20201;-69
2022/03/05 16:54:35;;;;;;;367.13;77.18;;;;;;;;;;5073785;28;20238;-69
2022/03/05 16:57:02;;;;;;;364.77;76.90;;;;;;;;;;5073657;28;20220;-69
2022/03/05 16:59:30;;;;;;;358.35;74.65;;;;;;;;;;5073667;28;20669;-69
2022/03/05 17:01:57;;;;;;;358.52;74.85;;;;;;;;;;5073612;28;20744;-69
2022/03/05 17:04:29;;;;;;;366.92;76.57;;;;;;;;;;5073401;28;20720;-69
2022/03/05 17:06:57;;;;;;;359.13;74.97;;;;;;;;;;5073652;28;20327;-69
2022/03/05 17:09:24;;;;;;;356.48;74.15;;;;;;;;;;5073528;28;20205;-69
2022/03/05 17:11:52;;;;;;;352.98;75.07;;;;;;;;;;5073468;28;20217;-69
2022/03/05 17:14:20;;;;;;;349.52;72.93;;;;;;;;;;5073312;28;20208;-69
2022/03/05 17:16:48;;;;;;;357.05;73.40;;;;;;;;;;5073241;28;20721;-69
2022/03/05 17:19:15;;;;;;;353.00;78.43;;;;;;;;;;5073342;28;20231;-69
2022/03/05 17:21:45;;;;;;;381.77;78.57;;;;;;;;;;5073553;28;20258;-68
2022/03/05 17:24:12;;;;;;;358.38;73.07;;;;;;;;;;5073191;28;20215;-69
2022/03/05 17:26:40;;;;;;;384.85;83.65;;;;;;;;;;5073127;28;20239;-69
2022/03/05 17:29:08;;;;;;;398.65;92.15;;;;;;;;;;5066430;28;20975;-69
2022/03/05 17:31:35;;;;;;;385.30;82.40;;;;;;;;;;5073134;28;20731;-69
2022/03/05 17:34:03;;;;;;;371.20;79.10;;;;;;;;;;5072938;28;20673;-69
2022/03/05 17:36:30;;;;;;;362.27;71.68;;;;;;;;;;5073022;28;20208;-69
2022/03/05 17:39:00;;;;;;;360.25;78.07;;;;;;;;;;5072987;28;20597;-69
2022/03/05 17:41:28;;;;;;;376.75;79.45;;;;;;;;;;5072886;28;20209;-68
2022/03/05 17:43:55;;;;;;;362.27;75.97;;;;;;;;;;5073030;28;20204;-69
2022/03/05 17:46:23;;;;;;;360.38;79.00;;;;;;;;;;5072837;28;20228;-68
2022/03/05 17:48:50;;;;;;;386.45;80.25;;;;;;;;;;5072716;28;20219;-69
2022/03/05 17:51:17;;;;;;;381.60;86.82;;;;;;;;;;5072664;28;20247;-69
2022/03/05 17:53:45;;;;;;;371.08;74.63;;;;;;;;;;5072629;28;20209;-69
2022/03/05 17:56:14;;;;;;;370.23;77.22;;;;;;;;;;5072687;28;20699;-69
2022/03/05 17:58:42;;;;;;;365.42;72.65;;;;;;;;;;5072535;28;20666;-69
2022/03/05 18:01:09;;;;;;;381.48;92.75;;;;;;;;;;5072146;28;20221;-69
2022/03/05 18:03:39;;;;;;;351.00;70.93;;;;;;;;;;5072386;28;20205;-68
2022/03/05 18:06:09;;;;;;;353.70;72.20;;;;;;;;;;5072253;28;20243;-69
2022/03/05 18:08:37;;;;;;;356.75;72.53;;;;;;;;;;5072376;28;20209;-69
2022/03/05 18:11:06;;;;;;;366.40;73.07;;;;;;;;;;5072177;28;20204;-69
2022/03/05 18:13:35;;;;;;;358.88;79.10;;;;;;;;;;5072284;28;20212;-68
2022/03/05 18:16:03;;;;;;;356.95;75.05;;;;;;;;;;5072247;28;20601;-69
2022/03/05 18:18:30;;;;;;;369.45;76.32;;;;;;;;;;5072286;28;20219;-69
2022/03/05 18:20:58;;;;;;;362.15;76.03;;;;;;;;;;5072131;28;20212;-68
2022/03/05 18:23:25;;;;;;;351.15;69.97;;;;;;;;;;5072310;28;20204;-69
2022/03/05 18:25:53;;;;;;;365.67;80.60;;;;;;;;;;5071965;28;20219;-69
2022/03/05 18:28:21;;;;;;;351.13;71.28;;;;;;;;;;5072040;28;20212;-69
2022/03/05 18:30:51;;;;;;;364.55;75.22;;;;;;;;;;5072072;28;20216;-68
2022/03/05 18:33:18;;;;;;;370.55;76.32;;;;;;;;;;5071574;28;20209;-70
2022/03/05 18:35:46;;;;;;;356.20;71.53;;;;;;;;;;5071902;28;20593;-69
2022/03/05 18:38:13;;;;;;;360.45;75.53;;;;;;;;;;5071851;28;20707;-69
2022/03/05 18:40:41;;;;;;;357.40;73.50;;;;;;;;;;5071923;28;20228;-69
2022/03/05 18:43:08;;;;;;;349.05;73.82;;;;;;;;;;5071514;28;20219;-70
2022/03/05 18:45:37;;;;;;;346.13;70.32;;;;;;;;;;5071777;28;20603;-69
2022/03/05 18:48:07;;;;;;;349.50;76.82;;;;;;;;;;5064815;28;20618;-69
2022/03/05 18:50:35;;;;;;;361.23;74.70;;;;;;;;;;5071675;28;20204;-69
2022/03/05 18:53:02;;;;;;;369.73;81.78;;;;;;;;;;5071325;28;20215;-69
2022/03/05 18:55:29;;;;;;;378.83;82.38;;;;;;;;;;5071776;28;20586;-69
2022/03/05 18:57:57;;;;;;;358.38;77.00;;;;;;;;;;5071466;28;20224;-68
2022/03/05 19:00:24;;;;;;;384.00;78.47;;;;;;;;;;5071148;28;20207;-68
2022/03/05 19:02:52;;;;;;;371.10;78.03;;;;;;;;;;5071975;28;20254;-69
2022/03/05 19:05:21;;;;;;;368.58;81.63;;;;;;;;;;5071021;28;20239;-69
2022/03/05 19:07:49;;;;;;;378.35;82.72;;;;;;;;;;5071292;28;20632;-69
2022/03/05 19:10:17;;;;;;;367.83;75.45;;;;;;;;;;5071373;28;20201;-69
2022/03/05 19:12:46;;;;;;;358.92;77.15;;;;;;;;;;5071184;28;20204;-69
2022/03/05 19:15:14;;;;;;;364.95;81.95;;;;;;;;;;5063881;28;20216;-69
2022/03/05 19:17:42;;;;;;;354.80;70.05;;;;;;;;;;5071019;28;20582;-69
2022/03/05 19:20:11;;;;;;;359.25;71.82;;;;;;;;;;5071062;28;20247;-69
2022/03/05 19:22:41;;;;;;;359.08;75.28;;;;;;;;;;5071085;28;20213;-69
2022/03/05 19:25:10;;;;;;;365.25;76.90;;;;;;;;;;5070857;28;20678;-69
2022/03/05 19:27:38;;;;;;;362.52;77.80;;;;;;;;;;5070850;28;20228;-69
2022/03/05 19:30:06;;;;;;;353.55;69.22;;;;;;;;;;5071082;28;20204;-68
2022/03/05 19:32:34;;;;;;;357.98;75.47;;;;;;;;;;5070712;28;20591;-69
2022/03/05 19:35:01;;;;;;;357.38;72.97;;;;;;;;;;5070802;28;20214;-69
2022/03/05 19:37:29;;;;;;;353.92;72.13;;;;;;;;;;5070907;28;20212;-69
2022/03/05 19:39:58;;;;;;;367.88;79.00;;;;;;;;;;5070807;28;20212;-69
2022/03/05 19:42:25;;;;;;;364.02;77.82;;;;;;;;;;5070748;28;20207;-69
2022/03/05 19:44:53;;;;;;;362.65;75.88;;;;;;;;;;5070590;28;20216;-69
2022/03/05 19:47:20;;;;;;;358.90;71.65;;;;;;;;;;5070697;28;20314;-69
2022/03/05 19:49:47;;;;;;;360.92;73.25;;;;;;;;;;5070651;28;20211;-69
2022/03/05 19:52:15;;;;;;;348.83;71.32;;;;;;;;;;5070514;28;20204;-68
2022/03/05 19:54:43;;;;;;;363.08;77.40;;;;;;;;;;5070444;28;20266;-69
2022/03/05 19:57:13;;;;;;;380.08;84.25;;;;;;;;;;5070297;28;20681;-69
2022/03/05 19:59:40;;;;;;;342.25;67.97;;;;;;;;;;5070769;28;20322;-69
2022/03/05 20:02:08;;;;;;;355.50;75.25;;;;;;;;;;5070554;28;20224;-69
2022/03/05 20:04:35;;;;;;;350.00;70.35;;;;;;;;;;5070390;28;20247;-69
2022/03/05 20:07:03;;;;;;;360.88;82.43;;;;;;;;;;5070182;28;20592;-69
2022/03/05 20:09:30;;;;;;;350.50;72.80;;;;;;;;;;5063725;28;20216;-69
2022/03/05 20:11:57;;;;;;;361.48;74.20;;;;;;;;;;5070420;28;20666;-68
2022/03/05 20:14:28;;;;;;;368.98;74.55;;;;;;;;;;5070556;28;20218;-69
2022/03/05 20:16:56;;;;;;;376.05;74.88;;;;;;;;;;5070269;28;20681;-69
2022/03/05 20:19:23;;;;;;;349.08;70.28;;;;;;;;;;5070183;28;20200;-68
2022/03/05 20:21:51;;;;;;;358.65;73.25;;;;;;;;;;5070346;28;20307;-70
2022/03/05 20:24:18;;;;;;;362.42;82.55;;;;;;;;;;5070714;28;20297;-69
2022/03/05 20:26:48;;;;;;;357.17;74.57;;;;;;;;;;5072214;28;20228;-69
2022/03/05 20:29:16;;;;;;;363.67;78.85;;;;;;;;;;5074206;28;20201;-69
2022/03/05 20:31:46;;;;;;;372.35;78.40;;;;;;;;;;5074205;28;20200;-68
2022/03/05 20:34:13;;;;;;;355.13;71.65;;;;;;;;;;5074039;28;20201;-69
2022/03/05 20:36:42;;;;;;;360.80;73.32;;;;;;;;;;5074250;28;20211;-68
2022/03/05 20:39:10;;;;;;;374.10;84.10;;;;;;;;;;5074145;28;20212;-68
2022/03/05 20:41:37;;;;;;;356.38;72.57;;;;;;;;;;5074177;28;20208;-69
2022/03/05 20:44:05;;;;;;;346.60;66.78;;;;;;;;;;5073569;28;20216;-69
2022/03/05 20:46:33;;;;;;;343.42;67.40;;;;;;;;;;5073736;28;20212;-69
2022/03/05 20:49:02;;;;;;;355.73;69.72;;;;;;;;;;5073637;28;20701;-69
2022/03/05 20:51:29;;;;;;;355.05;71.03;;;;;;;;;;5074040;28;20208;-69
2022/03/05 20:53:57;;;;;;;359.40;72.55;;;;;;;;;;5073810;28;20205;-68
2022/03/05 20:56:24;;;;;;;347.52;67.32;;;;;;;;;;5073944;28;20235;-69
2022/03/05 20:58:52;;;;;;;360.48;71.80;;;;;;;;;;5073643;28;20208;-69
2022/03/05 21:01:19;;;;;;;351.70;71.90;;;;;;;;;;5073378;28;20250;-68
2022/03/05 21:03:47;;;;;;;353.13;72.10;;;;;;;;;;5073349;28;20209;-68
2022/03/05 21:06:22;;;;;;;344.48;68.75;;;;;;;;;;5073661;28;20291;-69
2022/03/05 21:08:49;;;;;;;383.55;77.88;;;;;;;;;;5073659;28;20662;-69
2022/03/05 21:11:17;;;;;;;361.63;80.25;;;;;;;;;;5073258;28;20204;-69
2022/03/05 21:13:45;;;;;;;363.83;75.00;;;;;;;;;;5073333;28;20236;-69
2022/03/05 21:16:12;;;;;;;354.92;72.70;;;;;;;;;;5073656;28;20287;-68
2022/03/05 21:18:39;;;;;;;358.40;72.65;;;;;;;;;;5073653;28;20223;-69
2022/03/05 21:21:07;;;;;;;342.92;66.93;;;;;;;;;;5073260;28;20205;-68
2022/03/05 21:23:37;;;;;;;372.98;79.07;;;;;;;;;;5073193;28;20204;-69
2022/03/05 21:26:05;;;;;;;364.30;80.45;;;;;;;;;;5073190;28;20207;-69
2022/03/05 21:28:33;;;;;;;353.40;71.03;;;;;;;;;;5073401;28;20701;-69
2022/03/05 21:31:00;;;;;;;351.40;74.38;;;;;;;;;;5073186;28;20227;-69
2022/03/05 21:33:28;;;;;;;363.92;85.45;;;;;;;;;;5073248;28;20212;-69
2022/03/05 21:35:55;;;;;;;347.27;71.18;;;;;;;;;;5073221;28;20388;-68
2022/03/05 21:38:22;;;;;;;340.10;69.95;;;;;;;;;;5072498;28;20248;-68
2022/03/05 21:40:52;;;;;;;350.80;74.82;;;;;;;;;;5072899;28;20219;-69
2022/03/05 21:43:20;;;;;;;360.80;76.78;;;;;;;;;;5072969;28;20215;-69
2022/03/05 21:45:48;;;;;;;345.05;71.22;;;;;;;;;;5073170;28;20205;-68
2022/03/05 21:48:15;;;;;;;361.05;78.07;;;;;;;;;;5072827;28;20240;-69
2022/03/05 21:50:43;;;;;;;367.30;79.13;;;;;;;;;;5072679;28;20207;-69
2022/03/05 21:53:10;;;;;;;380.38;89.47;;;;;;;;;;5072776;28;20208;-69
2022/03/05 21:55:38;;;;;;;369.70;83.10;;;;;;;;;;5072682;28;20669;-69
2022/03/05 21:58:07;;;;;;;352.65;75.28;;;;;;;;;;5072568;28;20693;-68
2022/03/05 22:00:34;;;;;;;356.13;73.93;;;;;;;;;;5072633;28;20694;-69
2022/03/05 22:03:02;;;;;;;363.95;80.65;;;;;;;;;;5072266;28;20693;-69
2022/03/05 22:05:30;;;;;;;347.38;72.30;;;;;;;;;;5072223;28;20327;-68
2022/03/05 22:07:57;;;;;;;359.48;75.82;;;;;;;;;;5072207;28;20314;-69
2022/03/05 22:10:24;;;;;;;367.08;77.38;;;;;;;;;;5072329;28;20212;-69
2022/03/05 22:12:52;;;;;;;356.35;77.75;;;;;;;;;;5072549;28;20201;-69
2022/03/05 22:15:21;;;;;;;348.60;68.55;;;;;;;;;;5072116;28;20220;-69
2022/03/05 22:17:48;;;;;;;377.30;83.32;;;;;;;;;;5072220;28;20208;-69
2022/03/05 22:20:16;;;;;;;351.73;73.05;;;;;;;;;;5065754;28;20597;-68
2022/03/05 22:22:44;;;;;;;348.83;73.10;;;;;;;;;;5072352;28;20270;-69
2022/03/05 22:25:12;;;;;;;368.35;79.63;;;;;;;;;;5072012;28;20212;-68
2022/03/05 22:27:40;;;;;;;361.60;74.47;;;;;;;;;;5071951;28;20243;-68
2022/03/05 22:30:08;;;;;;;363.77;76.57;;;;;;;;;;5072002;28;20209;-68
2022/03/05 22:32:37;;;;;;;341.98;67.55;;;;;;;;;;5071985;28;20223;-68
2022/03/05 22:35:04;;;;;;;363.58;76.00;;;;;;;;;;5071586;28;20697;-69
2022/03/05 22:37:32;;;;;;;368.00;79.85;;;;;;;;;;5072104;28;20303;-69
2022/03/05 22:40:00;;;;;;;359.20;73.78;;;;;;;;;;5071981;28;20200;-69
2022/03/05 22:42:27;;;;;;;372.77;80.53;;;;;;;;;;5071795;28;20201;-69
2022/03/05 22:44:55;;;;;;;369.00;79.07;;;;;;;;;;5071759;28;20220;-69
2022/03/05 22:47:22;;;;;;;353.02;71.47;;;;;;;;;;5071414;28;20221;-69
2022/03/05 22:49:51;;;;;;;363.40;70.93;;;;;;;;;;5071164;28;20208;-69
2022/03/05 22:52:19;;;;;;;344.67;69.05;;;;;;;;;;5071877;28;20215;-68
2022/03/05 22:54:46;;;;;;;357.77;70.90;;;;;;;;;;5071462;28;20209;-69
2022/03/05 22:57:14;;;;;;;372.42;76.25;;;;;;;;;;5071513;28;20218;-69
2022/03/05 22:59:41;;;;;;;358.40;70.30;;;;;;;;;;5071871;28;20669;-69
2022/03/05 23:04:56;;;;;;;359.05;72.47;;;;;;;;;;5071309;28;20324;-69
2022/03/05 23:10:09;;;;;;;360.65;71.60;;;;;;;;;;5071424;28;20215;-69
2022/03/05 23:12:36;;;;;;;349.55;69.15;;;;;;;;;;5071268;28;20692;-69
2022/03/05 23:15:04;;;;;;;362.00;69.70;;;;;;;;;;5071160;28;20208;-68
2022/03/05 23:17:31;;;;;;;365.65;74.13;;;;;;;;;;5071351;28;20300;-68
2022/03/05 23:20:01;;;;;;;357.08;71.28;;;;;;;;;;5071234;28;20212;-69
2022/03/05 23:22:28;;;;;;;354.35;83.22;;;;;;;;;;5071280;28;20212;-69
2022/03/05 23:24:56;;;;;;;368.33;76.80;;;;;;;;;;5071244;28;20579;-68
2022/03/05 23:27:23;;;;;;;350.40;67.90;;;;;;;;;;5070727;28;20245;-68
2022/03/05 23:29:51;;;;;;;352.83;72.05;;;;;;;;;;5070980;28;20220;-68
2022/03/05 23:32:18;;;;;;;362.30;73.97;;;;;;;;;;5070893;28;20677;-68
2022/03/05 23:34:45;;;;;;;357.50;74.05;;;;;;;;;;5070960;28;20204;-68
2022/03/05 23:37:14;;;;;;;369.25;80.30;;;;;;;;;;5070635;28;20212;-69
2022/03/05 23:39:42;;;;;;;351.75;71.88;;;;;;;;;;5070634;28;20212;-68
2022/03/05 23:42:09;;;;;;;337.00;65.80;;;;;;;;;;5071193;28;20307;-69
2022/03/05 23:44:37;;;;;;;352.45;68.88;;;;;;;;;;5070593;28;20685;-68
2022/03/05 23:47:04;;;;;;;352.77;71.85;;;;;;;;;;5070686;28;20295;-68
2022/03/05 23:49:32;;;;;;;356.23;76.53;;;;;;;;;;5070995;28;20243;-69
2022/03/05 23:51:59;;;;;;;379.45;77.80;;;;;;;;;;5071312;28;20235;-69
2022/03/05 23:54:28;;;;;;;345.40;71.03;;;;;;;;;;5071182;28;20212;-68
2022/03/05 23:56:56;;;;;;;342.85;69.55;;;;;;;;;;5071129;28;20239;-68
2022/03/05 23:59:23;;;;;;;360.30;71.47;;;;;;;;;;5070992;28;20212;-68
